首页
METAR-TAF:

METAR-TAF

机场 :

温斯顿-塞勒姆, 北卡罗来纳州, 美国

纬度: 36-08-00N, 经度: 080-13-29W, 海拔: 295米

当前天气观测

该预报发布于16分钟前的14:17 UTC
风速6节,风向多变
温度 15°C
湿度 63%
气压 1028 hPa
能見度: 16.1公里
多云层高于2900英尺
多云层高于3500英尺

METAR: KINT 221417Z VRB06KT 10SM BKN029 BKN035 15/08 A3037 RMK AO2 T01500078

时间: 10:33 (14:33 UTC)

预报

该预报发布于3小时和13分钟前的11:20 UTC
预报有效从22日的 12点(UTC)到 23日的 12点(UTC)
风速7节,风向南转南东
能見度: 10公里
多云层高于25000英尺
从 23日的 0000点(UTC)
风速8节,风向东转东南
能見度: 10公里
阴天层高于7000英尺
从 23日的 0900点(UTC)
风速12节,风向
能見度: 10公里
阴天层高于2500英尺

TAF: KINT 221120Z 2212/2312 15007KT P6SM BKN250 FM230000 11008KT P6SM OVC070 FM230900 08012KT P6SM OVC025

超过4000个机场的气象观测和天气预报(METAR&TAF报告)。

可查询的气象台以黄色和红色小点在地图上表示。

将鼠标移到小点上方,可查看气象台名称。

然后点击查看天气观测和预报。

如需切换地图:点击带黑十字的绿色按钮放大地图;点击带横线的绿色按钮缩小地图;或者点击绿色箭头查看邻近地区的地图。


METAR-TAF: